| time (UTC) | temp F | wind direction | speed knots | gust knots | rain 1hr in | rain 24hr in | rain mn in | humidity % | barometer mb |
| 20260507223021 | 63 | 220 | 0.0 | 0.0 | 0.00 | 0.08 | 0.05 | 35 | 1004.8 |
| 20260507221517 | 63 | 210 | 0.0 | 0.0 | 0.00 | 0.08 | 0.05 | 30 | 1004.7 |
| 20260507220013 | 64 | 244 | 0.0 | 0.0 | 0.00 | 0.08 | 0.05 | 31 | 1004.6 |
| 20260507214508 | 65 | 230 | 0.0 | 0.0 | 0.00 | 0.08 | 0.05 | 30 | 1004.6 |
| 20260507213004 | 65 | 235 | 0.0 | 0.0 | 0.00 | 0.08 | 0.05 | 29 | 1004.4 |
| 20260507211628 | 65 | 198 | 0.0 | 0.0 | 0.00 | 0.08 | 0.05 | 32 | 1004.4 |
| 20260507210055 | 65 | 217 | 0.0 | 0.0 | 0.00 | 0.08 | 0.05 | 33 | 1004.3 |
| 20260507204600 | 64 | 217 | 0.0 | 0.0 | 0.00 | 0.10 | 0.05 | 34 | 1004.3 |
| 20260507203047 | 65 | 199 | 0.0 | 0.0 | 0.00 | 0.10 | 0.05 | 31 | 1004.2 |
| 20260507201542 | 66 | 234 | 0.0 | 0.0 | 0.00 | 0.10 | 0.05 | 32 | 1004.2 |
| 20260507200039 | 65 | 238 | 0.0 | 0.0 | 0.00 | 0.10 | 0.05 | 32 | 1004.4 |
| 20260507194538 | 65 | 232 | 0.0 | 0.0 | 0.00 | 0.12 | 0.05 | 32 | 1004.4 |
| 20260507193034 | 65 | 253 | 0.0 | 0.0 | 0.00 | 0.12 | 0.05 | 31 | 1004.5 |
| 20260507191525 | 65 | 322 | 0.0 | 0.0 | 0.00 | 0.12 | 0.05 | 33 | 1004.7 |
| 20260507190021 | 64 | 253 | 0.0 | 0.0 | 0.00 | 0.12 | 0.05 | 32 | 1004.8 |
| 20260507184519 | 65 | 248 | 0.0 | 0.0 | 0.00 | 0.12 | 0.05 | 32 | 1004.9 |
| 20260507183013 | 64 | 221 | 0.0 | 0.0 | 0.00 | 0.12 | 0.05 | 32 | 1005.0 |
| 20260507181507 | 64 | 223 | 0.0 | 0.0 | 0.00 | 0.12 | 0.05 | 34 | 1005.1 |
| 20260507180007 | 63 | 207 | 0.0 | 0.0 | 0.00 | 0.12 | 0.05 | 34 | 1005.2 |
| 20260507174559 | 63 | 324 | 0.0 | 0.0 | 0.00 | 0.12 | 0.05 | 39 | 1005.2 |
| 20260507173056 | 63 | 240 | 0.0 | 0.0 | 0.00 | 0.12 | 0.05 | 40 | 1005.4 |
| 20260507171554 | 63 | 244 | 0.0 | 0.0 | 0.00 | 0.12 | 0.05 | 41 | 1005.5 |
| 20260507170045 | 63 | 227 | 0.0 | 0.0 | 0.00 | 0.12 | 0.05 | 42 | 1005.6 |
| 20260507164541 | 62 | 221 | 0.0 | 0.0 | 0.00 | 0.12 | 0.05 | 52 | 1005.7 |
| 20260507163035 | 61 | 199 | 0.0 | 0.0 | 0.00 | 0.12 | 0.05 | 51 | 1005.8 |
| 20260507161531 | 60 | 203 | 0.0 | 0.0 | 0.00 | 0.12 | 0.05 | 53 | 1006.0 |
| 20260507160033 | 60 | 240 | 0.0 | 0.0 | 0.00 | 0.12 | 0.05 | 51 | 1006.1 |
| 20260507154523 | 61 | 221 | 0.0 | 0.0 | 0.00 | 0.12 | 0.05 | 56 | 1006.2 |
| 20260507153020 | 59 | 223 | 0.0 | 0.0 | 0.00 | 0.12 | 0.05 | 58 | 1006.2 |
| 20260507151513 | 59 | 223 | 0.0 | 0.0 | 0.00 | 0.12 | 0.05 | 59 | 1006.5 |
| 20260507150011 | 59 | 227 | 0.0 | 0.0 | 0.00 | 0.12 | 0.05 | 59 | 1006.5 |
| 20260507144505 | 58 | 227 | 0.0 | 0.0 | 0.00 | 0.12 | 0.05 | 57 | 1006.9 |
| 20260507143108 | 58 | 240 | 0.0 | 0.0 | 0.00 | 0.12 | 0.05 | 60 | 1006.8 |
| 20260507141557 | 58 | 242 | 0.0 | 0.0 | 0.00 | 0.12 | 0.05 | 61 | 1006.9 |
| 20260507140105 | 57 | 248 | 0.0 | 0.0 | 0.00 | 0.12 | 0.05 | 57 | 1007.0 |
| 20260507134548 | 56 | 254 | 0.0 | 0.0 | 0.00 | 0.12 | 0.05 | 61 | 1006.9 |
| 20260507133042 | 55 | 244 | 0.0 | 0.0 | 0.00 | 0.12 | 0.05 | 67 | 1007.0 |
| 20260507131543 | 54 | 244 | 0.0 | 0.0 | 0.00 | 0.12 | 0.05 | 66 | 1007.1 |
| 20260507130034 | 53 | 232 | 0.0 | 0.0 | 0.00 | 0.12 | 0.05 | 72 | 1007.2 |
| 20260507124532 | 51 | 229 | 0.0 | 0.0 | 0.00 | 0.12 | 0.05 | 74 | 1007.3 |
| 20260507123027 | 50 | 226 | 0.0 | 0.0 | 0.00 | 0.12 | 0.05 | 56 | 1007.3 |
| 20260507121520 | 50 | 225 | 0.0 | 0.0 | 0.00 | 0.12 | 0.05 | 43 | 1007.3 |
| 20260507120016 | 49 | 225 | 0.0 | 0.0 | 0.00 | 0.12 | 0.05 | 24 | 1007.1 |
| 20260507114512 | 49 | 225 | 0.0 | 0.0 | 0.00 | 0.12 | 0.05 | 7 | 1007.2 |
| 20260507113007 | 49 | 225 | 0.0 | 0.0 | 0.00 | 0.12 | 0.05 | 1 | 1007.1 |
| 20260507111504 | 49 | 225 | 0.0 | 0.0 | 0.00 | 0.12 | 0.05 | 1 | 1007.0 |
| 20260507110101 | 49 | 225 | 0.0 | 0.0 | 0.00 | 0.12 | 0.05 | 2 | 1007.0 |
| 20260507104555 | 48 | 225 | 0.0 | 0.0 | 0.01 | 0.12 | 0.05 | 5 | 1007.1 |
| 20260507103050 | 48 | 225 | 0.0 | 0.0 | 0.01 | 0.12 | 0.05 | 10 | 1006.7 |
| 20260507101600 | 48 | 225 | 0.0 | 0.0 | 0.02 | 0.12 | 0.05 | 12 | 1006.4 |
| 20260507100041 | 49 | 225 | 0.0 | 0.0 | 0.03 | 0.12 | 0.05 | 19 | 1006.5 |
| 20260507094539 | 49 | 225 | 0.0 | 0.0 | 0.02 | 0.11 | 0.04 | 25 | 1006.4 |
| 20260507093033 | 49 | 225 | 0.0 | 0.0 | 0.02 | 0.11 | 0.04 | 28 | 1006.6 |
| 20260507091548 | 50 | 225 | 0.0 | 0.0 | 0.01 | 0.10 | 0.03 | 25 | 1006.4 |
| 20260507090023 | 50 | 225 | 0.0 | 0.0 | 0.00 | 0.09 | 0.02 | 22 | 1006.7 |
| 20260507084523 | 51 | 225 | 0.0 | 0.0 | 0.00 | 0.09 | 0.02 | 25 | 1006.5 |
| 20260507083019 | 51 | 225 | 0.0 | 0.0 | 0.02 | 0.09 | 0.02 | 22 | 1006.4 |
| 20260507081510 | 52 | 225 | 0.0 | 0.0 | 0.02 | 0.09 | 0.02 | 21 | 1005.8 |
| 20260507080008 | 53 | 225 | 0.0 | 0.0 | 0.02 | 0.09 | 0.02 | 24 | 1006.2 |
| 20260507074508 | 53 | 225 | 0.0 | 0.0 | 0.02 | 0.09 | 0.02 | 39 | 1006.0 |
| 20260507073110 | 53 | 225 | 0.0 | 0.0 | 0.00 | 0.07 | 0.00 | 51 | 1006.0 |
| 20260507071558 | 53 | 225 | 0.0 | 0.0 | 0.00 | 0.07 | 0.00 | 54 | 1005.5 |
| 20260507070134 | 53 | 225 | 0.0 | 0.0 | 0.00 | 0.07 | 0.00 | 60 | 1005.7 |
| 20260507064549 | 53 | 225 | 0.0 | 0.0 | 0.00 | 0.07 | 0.00 | 62 | 1005.5 |
| 20260507063040 | 53 | 224 | 0.0 | 0.0 | 0.00 | 0.07 | 0.00 | 59 | 1005.4 |
| 20260507061536 | 54 | 220 | 0.0 | 0.0 | 0.00 | 0.07 | 0.00 | 19 | 1005.4 |
| 20260507060033 | 55 | 220 | 0.0 | 0.0 | 0.00 | 0.07 | 0.00 | 12 | 1005.4 |
| 20260507054527 | 55 | 220 | 0.0 | 0.0 | 0.00 | 0.07 | 0.00 | 14 | 1005.6 |
| 20260507053023 | 55 | 220 | 0.0 | 0.0 | 0.00 | 0.07 | 0.00 | 14 | 1005.8 |
| 20260507051518 | 56 | 219 | 0.0 | 0.0 | 0.00 | 0.07 | 0.00 | 12 | 1005.4 |
| 20260507050027 | 56 | 219 | 0.0 | 0.0 | 0.00 | 0.07 | 0.00 | 12 | 1005.5 |
| 20260507044525 | 57 | 219 | 0.0 | 0.0 | 0.00 | 0.07 | 0.00 | 1 | 1005.8 |
| 20260507043005 | 59 | 211 | 0.0 | 0.0 | 0.00 | 0.07 | 0.00 | 1 | 1005.4 |
| 20260507041605 | 59 | 210 | 0.0 | 0.0 | 0.01 | 0.07 | 0.00 | 1 | 1005.5 |
| 20260507040055 | 59 | 208 | 0.0 | 0.0 | 0.01 | 0.07 | 0.00 | 1 | 1005.7 |
| 20260507034552 | 59 | 208 | 0.0 | 0.0 | 0.01 | 0.07 | 0.07 | 1 | 1005.2 |
| 20260507033048 | 60 | 207 | 0.0 | 0.0 | 0.01 | 0.07 | 0.07 | 1 | 1005.3 |
| 20260507031543 | 60 | 202 | 0.0 | 0.0 | 0.00 | 0.06 | 0.06 | 1 | 1004.8 |
| 20260507030042 | 59 | 201 | 0.0 | 0.0 | 0.00 | 0.06 | 0.06 | 1 | 1004.7 |
| 20260507024535 | 59 | 201 | 0.0 | 0.0 | 0.00 | 0.06 | 0.06 | 1 | 1004.7 |
| 20260507023030 | 59 | 201 | 0.0 | 0.0 | 0.00 | 0.06 | 0.06 | 1 | 1004.8 |
| 20260507021525 | 59 | 191 | 0.0 | 0.0 | 0.00 | 0.06 | 0.06 | 1 | 1004.9 |
| 20260507020023 | 59 | 208 | 0.0 | 0.0 | 0.00 | 0.06 | 0.06 | 1 | 1004.7 |
| 20260507014517 | 59 | 209 | 0.0 | 0.0 | 0.00 | 0.06 | 0.06 | 1 | 1005.0 |
| 20260507013012 | 59 | 169 | 0.0 | 0.0 | 0.00 | 0.06 | 0.06 | 1 | 1004.9 |
| 20260507011508 | 59 | 167 | 0.0 | 0.0 | 0.00 | 0.06 | 0.06 | 1 | 1005.0 |
| 20260507010004 | 59 | 154 | 0.0 | 0.0 | 0.00 | 0.06 | 0.06 | 1 | 1005.0 |
| 20260507004559 | 59 | 103 | 0.0 | 0.0 | 0.00 | 0.06 | 0.06 | 1 | 1005.2 |
| 20260507003055 | 59 | 165 | 0.0 | 0.0 | 0.00 | 0.06 | 0.06 | 1 | 1005.0 |
| 20260507001553 | 59 | 150 | 0.0 | 0.0 | 0.01 | 0.06 | 0.06 | 1 | 1005.1 |
| 20260507000046 | 59 | 173 | 0.0 | 0.0 | 0.02 | 0.06 | 0.06 | 1 | 1004.8 |
| 20260506234541 | 60 | 153 | 0.0 | 0.0 | 0.02 | 0.06 | 0.06 | 1 | 1004.8 |
| 20260506233037 | 60 | 161 | 0.0 | 0.0 | 0.02 | 0.06 | 0.06 | 1 | 1004.7 |
| 20260506231533 | 60 | 171 | 0.0 | 0.0 | 0.01 | 0.05 | 0.05 | 1 | 1004.7 |
| 20260506230028 | 60 | 136 | 0.0 | 0.0 | 0.00 | 0.04 | 0.04 | 1 | 1004.8 |
| 20260506224524 | 60 | 167 | 0.0 | 0.0 | 0.00 | 0.04 | 0.04 | 1 | 1004.9 |